createdAt,value
2022-12-23T00:00:19.717Z,41.10
2022-12-23T00:01:23.538Z,41.10
2022-12-23T00:02:27.526Z,41.10
2022-12-23T00:03:33.056Z,41.10
2022-12-23T00:04:35.567Z,41.10
2022-12-23T00:05:38.999Z,41.10
2022-12-23T00:06:44.021Z,41.10
2022-12-23T00:07:47.049Z,41.10
2022-12-23T00:08:49.896Z,41.10
2022-12-23T00:09:52.904Z,41.10
2022-12-23T00:10:57.541Z,41.10
2022-12-23T00:12:18.872Z,41.70
2022-12-23T00:13:40.000Z,41.10
2022-12-23T00:15:01.206Z,41.10
2022-12-23T00:16:10.012Z,41.10
2022-12-23T00:17:21.994Z,41.20
2022-12-23T00:18:27.591Z,41.10
2022-12-23T00:19:30.023Z,41.10
2022-12-23T00:20:34.309Z,41.10
2022-12-23T00:21:37.124Z,41.10
2022-12-23T00:22:58.589Z,41.10
2022-12-23T00:24:01.072Z,41.10
2022-12-23T00:25:04.546Z,41.10
2022-12-23T00:26:07.908Z,41.10
2022-12-23T00:27:10.518Z,41.10
2022-12-23T00:28:18.947Z,41.10
2022-12-23T00:29:21.664Z,41.10
2022-12-23T00:30:24.661Z,41.10
2022-12-23T00:31:27.644Z,41.10
2022-12-23T00:32:30.108Z,41.10
2022-12-23T00:33:37.848Z,41.10
2022-12-23T00:34:40.396Z,41.10
2022-12-23T00:35:45.691Z,41.10
2022-12-23T00:36:49.673Z,41.10
2022-12-23T00:37:52.207Z,41.10
2022-12-23T00:39:13.992Z,41.10
2022-12-23T00:40:34.857Z,41.10
2022-12-23T00:41:56.816Z,41.10
2022-12-23T00:43:00.802Z,41.10
2022-12-23T00:44:04.531Z,41.10
2022-12-23T00:45:15.839Z,41.10
2022-12-23T00:46:19.481Z,41.10
2022-12-23T00:47:41.954Z,41.10
2022-12-23T00:49:02.894Z,41.10
2022-12-23T00:50:05.853Z,41.10
2022-12-23T00:51:09.171Z,41.10
2022-12-23T00:52:13.825Z,41.10
2022-12-23T00:53:17.608Z,41.10
2022-12-23T00:54:21.394Z,41.10
2022-12-23T00:55:24.490Z,41.10
2022-12-23T00:56:27.098Z,41.10
2022-12-23T00:57:29.919Z,41.10
2022-12-23T00:58:32.551Z,41.10
2022-12-23T00:59:35.268Z,41.70
2022-12-23T01:00:58.067Z,41.70
2022-12-23T01:02:19.343Z,41.10
2022-12-23T01:03:41.698Z,41.10
2022-12-23T01:05:03.254Z,41.10
2022-12-23T01:06:06.055Z,41.10
2022-12-23T01:07:09.040Z,41.10
2022-12-23T01:08:12.364Z,41.10
2022-12-23T01:09:15.827Z,41.10
2022-12-23T01:10:19.516Z,41.10
2022-12-23T01:11:23.414Z,41.20
2022-12-23T01:12:25.915Z,41.10
2022-12-23T01:13:33.299Z,41.10
2022-12-23T01:14:35.837Z,41.10
2022-12-23T01:15:38.303Z,41.10
2022-12-23T01:16:41.677Z,41.10
2022-12-23T01:17:44.314Z,41.10
2022-12-23T01:18:47.313Z,41.10
2022-12-23T01:19:51.748Z,41.10
2022-12-23T01:20:54.380Z,41.10
2022-12-23T01:21:56.843Z,41.20
2022-12-23T01:22:59.255Z,41.10
2022-12-23T01:24:02.035Z,41.10
2022-12-23T01:25:04.835Z,41.10
2022-12-23T01:26:08.241Z,41.70
2022-12-23T01:27:10.679Z,41.70
2022-12-23T01:28:15.271Z,41.10
2022-12-23T01:29:18.127Z,41.10
2022-12-23T01:30:20.695Z,41.10
2022-12-23T01:31:25.714Z,41.10
2022-12-23T01:32:28.300Z,41.10
2022-12-23T01:33:32.465Z,41.20
2022-12-23T01:34:37.485Z,41.10
2022-12-23T01:35:40.157Z,41.10
2022-12-23T01:36:42.635Z,41.10
2022-12-23T01:37:45.480Z,41.20
2022-12-23T01:38:51.039Z,41.70
2022-12-23T01:39:55.002Z,41.10
2022-12-23T01:40:57.786Z,41.20
2022-12-23T01:42:20.251Z,41.20
2022-12-23T01:43:24.143Z,41.10
2022-12-23T01:44:48.741Z,41.20
2022-12-23T01:45:51.768Z,41.10
2022-12-23T01:46:54.354Z,41.80
2022-12-23T01:48:17.240Z,41.20
2022-12-23T01:49:19.758Z,41.10
2022-12-23T01:50:37.627Z,41.20
2022-12-23T01:51:40.136Z,41.20
2022-12-23T01:52:50.337Z,41.20
2022-12-23T01:54:01.199Z,41.20
2022-12-23T01:55:04.029Z,41.20
2022-12-23T01:56:18.402Z,41.30
2022-12-23T01:57:21.732Z,41.30
2022-12-23T01:58:33.630Z,41.20
2022-12-23T01:59:55.137Z,41.20
2022-12-23T02:01:17.450Z,41.20
2022-12-23T02:02:39.885Z,41.20
2022-12-23T02:03:44.507Z,41.10
2022-12-23T02:04:49.228Z,41.70
2022-12-23T02:05:53.070Z,41.20
2022-12-23T02:07:14.552Z,41.20
2022-12-23T02:08:36.897Z,41.20
2022-12-23T02:09:41.290Z,41.30
2022-12-23T02:11:17.628Z,41.20
2022-12-23T02:12:45.587Z,41.20
2022-12-23T02:14:37.009Z,41.20
2022-12-23T02:16:08.918Z,41.20
2022-12-23T02:17:36.591Z,41.30
2022-12-23T02:18:56.587Z,41.20
2022-12-23T02:20:07.059Z,41.30
2022-12-23T02:21:25.850Z,41.30
2022-12-23T02:22:55.780Z,41.30
2022-12-23T02:24:20.110Z,41.20
2022-12-23T02:25:41.447Z,41.30
2022-12-23T02:27:09.568Z,41.20
2022-12-23T02:28:23.930Z,41.20
2022-12-23T02:29:48.686Z,41.20
2022-12-23T02:31:15.697Z,41.30
2022-12-23T02:32:36.382Z,41.30
2022-12-23T02:34:03.370Z,41.30
2022-12-23T02:35:13.537Z,41.20
2022-12-23T02:36:37.977Z,41.30
2022-12-23T02:37:57.893Z,41.90
2022-12-23T02:39:08.565Z,41.30
2022-12-23T02:40:35.354Z,41.30
2022-12-23T02:42:02.051Z,41.30
2022-12-23T02:43:06.882Z,41.30
2022-12-23T02:44:28.460Z,41.30
2022-12-23T02:45:41.759Z,41.20
2022-12-23T02:46:51.376Z,41.30
2022-12-23T02:48:01.916Z,41.30
2022-12-23T02:49:13.375Z,41.30
2022-12-23T02:50:21.425Z,41.30
2022-12-23T02:51:30.597Z,41.30
2022-12-23T02:52:36.044Z,41.30
2022-12-23T02:53:44.559Z,41.30
2022-12-23T02:54:53.624Z,41.20
2022-12-23T02:55:57.813Z,41.30
2022-12-23T02:57:03.646Z,41.20
2022-12-23T02:58:10.509Z,41.30
2022-12-23T02:59:20.538Z,41.30
2022-12-23T03:00:23.226Z,41.30
2022-12-23T03:01:29.346Z,41.30
2022-12-23T03:02:37.545Z,41.30
2022-12-23T03:03:41.655Z,41.30
2022-12-23T03:04:44.361Z,41.30
2022-12-23T03:05:50.199Z,41.30
2022-12-23T03:06:54.721Z,41.30
2022-12-23T03:08:02.768Z,41.30
2022-12-23T03:09:05.460Z,41.40
2022-12-23T03:10:37.726Z,41.30
2022-12-23T03:11:58.684Z,41.30
2022-12-23T03:13:17.121Z,41.30
2022-12-23T03:14:36.495Z,41.40
2022-12-23T03:15:44.457Z,41.30
2022-12-23T03:16:51.193Z,41.40
2022-12-23T03:18:21.820Z,41.40
2022-12-23T03:19:37.806Z,41.40
2022-12-23T03:21:10.584Z,41.40
2022-12-23T03:22:30.826Z,41.30
2022-12-23T03:23:44.527Z,41.30
2022-12-23T03:25:20.411Z,41.30
2022-12-23T03:26:33.721Z,41.30
2022-12-23T03:27:36.229Z,41.90
2022-12-23T03:29:16.702Z,41.40
2022-12-23T03:30:20.611Z,41.30
2022-12-23T03:31:26.474Z,41.30
2022-12-23T03:32:33.739Z,41.30
2022-12-23T03:33:40.929Z,41.40
2022-12-23T03:34:48.092Z,41.30
2022-12-23T03:36:03.014Z,41.30
2022-12-23T03:37:09.754Z,41.40
2022-12-23T03:38:14.971Z,41.40
2022-12-23T03:39:23.317Z,41.30
2022-12-23T03:40:33.723Z,41.30
2022-12-23T03:41:44.162Z,41.30
2022-12-23T03:42:52.045Z,41.40
2022-12-23T03:44:07.449Z,41.40
2022-12-23T03:45:40.713Z,41.40
2022-12-23T03:46:46.308Z,41.30
2022-12-23T03:47:56.000Z,41.30
2022-12-23T03:49:04.084Z,41.30
2022-12-23T03:50:10.458Z,41.40
2022-12-23T03:51:18.446Z,41.30
2022-12-23T03:52:27.495Z,41.40
2022-12-23T03:53:39.316Z,41.40
2022-12-23T03:54:55.093Z,41.40
2022-12-23T03:56:05.487Z,41.40
2022-12-23T03:57:09.044Z,41.40
2022-12-23T03:58:33.878Z,41.40
2022-12-23T03:59:43.754Z,41.30
2022-12-23T04:01:04.044Z,41.40
2022-12-23T04:03:00.169Z,41.40
2022-12-23T04:04:27.438Z,41.30
2022-12-23T04:05:37.697Z,41.30
2022-12-23T04:06:48.796Z,41.30
2022-12-23T04:08:00.211Z,41.40
2022-12-23T04:09:04.764Z,41.40
2022-12-23T04:10:09.701Z,41.40
2022-12-23T04:11:12.831Z,41.40
2022-12-23T04:12:17.466Z,41.30
2022-12-23T04:13:20.275Z,41.40
2022-12-23T04:14:23.662Z,41.40
2022-12-23T04:15:27.802Z,41.30
2022-12-23T04:16:30.614Z,41.40
2022-12-23T04:17:33.482Z,41.40
2022-12-23T04:18:36.573Z,41.40
2022-12-23T04:19:39.056Z,41.40
2022-12-23T04:20:41.561Z,42.00
2022-12-23T04:21:44.456Z,41.40
2022-12-23T04:22:47.052Z,41.50
2022-12-23T04:23:49.492Z,41.40
2022-12-23T04:24:52.055Z,41.40
2022-12-23T04:25:54.574Z,41.40
2022-12-23T04:26:57.002Z,41.40
2022-12-23T04:28:00.109Z,41.40
2022-12-23T04:29:02.964Z,41.50
2022-12-23T04:30:07.212Z,41.40
2022-12-23T04:31:10.166Z,41.40
2022-12-23T04:32:12.687Z,41.40
2022-12-23T04:33:15.148Z,41.40
2022-12-23T04:34:17.632Z,41.50
2022-12-23T04:35:20.190Z,41.50
2022-12-23T04:36:22.658Z,41.40
2022-12-23T04:37:26.193Z,41.40
2022-12-23T04:38:29.048Z,41.40
2022-12-23T04:39:37.497Z,41.40
2022-12-23T04:40:40.032Z,41.40
2022-12-23T04:41:42.786Z,41.50
2022-12-23T04:42:45.200Z,41.40
2022-12-23T04:43:52.735Z,41.50
2022-12-23T04:44:56.822Z,41.50
2022-12-23T04:46:00.059Z,41.40
2022-12-23T04:47:03.708Z,41.40
2022-12-23T04:48:06.877Z,41.50
2022-12-23T04:49:09.700Z,41.50
2022-12-23T04:50:16.282Z,41.50
2022-12-23T04:51:18.739Z,41.50
2022-12-23T04:52:21.200Z,41.50
2022-12-23T04:53:23.715Z,41.60
2022-12-23T04:54:26.549Z,41.60
2022-12-23T04:55:29.076Z,41.50
2022-12-23T04:56:31.539Z,41.60
2022-12-23T04:57:34.860Z,41.60
2022-12-23T04:58:37.378Z,41.60
2022-12-23T04:59:39.815Z,41.60
2022-12-23T05:00:43.670Z,41.70
2022-12-23T05:01:48.184Z,41.60
2022-12-23T05:02:50.869Z,41.60
2022-12-23T05:03:54.469Z,41.60
2022-12-23T05:04:56.883Z,41.60
2022-12-23T05:05:59.495Z,41.70
2022-12-23T05:07:02.268Z,42.30
2022-12-23T05:08:08.518Z,41.60
2022-12-23T05:09:11.152Z,41.60
2022-12-23T05:10:13.951Z,41.70
2022-12-23T05:11:16.700Z,41.70
2022-12-23T05:12:19.207Z,41.70
2022-12-23T05:13:22.364Z,41.70
2022-12-23T05:14:24.838Z,41.60
2022-12-23T05:15:27.334Z,41.70
2022-12-23T05:16:31.291Z,41.70
2022-12-23T05:17:34.074Z,41.80
2022-12-23T05:18:36.526Z,41.70
2022-12-23T05:19:38.995Z,41.80
2022-12-23T05:20:41.491Z,41.70
2022-12-23T05:21:43.945Z,41.80
2022-12-23T05:22:46.397Z,41.90
2022-12-23T05:23:48.820Z,42.00
2022-12-23T05:24:52.421Z,42.10
2022-12-23T05:25:55.063Z,42.00
2022-12-23T05:27:00.459Z,41.90
2022-12-23T05:28:05.180Z,42.00
2022-12-23T05:29:07.944Z,42.10
2022-12-23T05:30:11.079Z,42.20
2022-12-23T05:31:14.453Z,42.20
2022-12-23T05:32:17.012Z,42.10
2022-12-23T05:33:19.528Z,42.40
2022-12-23T05:34:22.353Z,42.60
2022-12-23T05:35:26.467Z,42.60
2022-12-23T05:36:29.171Z,42.70
2022-12-23T05:37:32.007Z,42.70
2022-12-23T05:38:34.482Z,42.90
2022-12-23T05:39:36.993Z,43.10
2022-12-23T05:40:39.432Z,43.20
2022-12-23T05:41:42.067Z,43.30
2022-12-23T05:42:44.647Z,43.50
2022-12-23T05:43:47.165Z,43.50
2022-12-23T05:44:49.654Z,43.60
2022-12-23T05:45:52.547Z,43.60
2022-12-23T05:46:55.092Z,43.80
2022-12-23T05:47:57.875Z,43.80
2022-12-23T05:49:00.493Z,43.90
2022-12-23T05:50:04.145Z,44.10
2022-12-23T05:51:06.920Z,44.10
2022-12-23T05:52:09.347Z,44.20
2022-12-23T05:53:11.921Z,44.20
2022-12-23T05:54:14.479Z,44.20
2022-12-23T05:55:17.196Z,44.20
2022-12-23T05:56:19.700Z,44.30
2022-12-23T05:57:22.443Z,44.40
2022-12-23T05:58:25.307Z,44.50
2022-12-23T05:59:31.248Z,44.60
2022-12-23T06:00:34.544Z,44.60
2022-12-23T06:01:37.507Z,44.70
2022-12-23T06:02:40.802Z,44.70
2022-12-23T06:03:43.558Z,44.70
2022-12-23T06:04:46.064Z,44.70
2022-12-23T06:05:52.097Z,44.70
2022-12-23T06:06:54.569Z,44.70
2022-12-23T06:07:57.534Z,44.80
2022-12-23T06:09:01.613Z,44.80
2022-12-23T06:10:05.744Z,44.80
2022-12-23T06:11:08.141Z,44.80
2022-12-23T06:12:10.689Z,44.90
2022-12-23T06:13:13.569Z,44.90
2022-12-23T06:14:16.106Z,44.90
2022-12-23T06:15:20.492Z,44.80
2022-12-23T06:16:24.586Z,44.90
2022-12-23T06:17:27.112Z,44.90
2022-12-23T06:18:29.609Z,44.90
2022-12-23T06:19:32.021Z,44.90
2022-12-23T06:20:34.627Z,44.90
2022-12-23T06:21:38.567Z,44.90
2022-12-23T06:22:41.443Z,44.90
2022-12-23T06:23:44.304Z,44.80
2022-12-23T06:24:46.761Z,44.90
2022-12-23T06:25:49.382Z,44.90
2022-12-23T06:26:56.696Z,44.90
2022-12-23T06:27:59.945Z,44.90
2022-12-23T06:29:03.874Z,44.90
2022-12-23T06:30:07.447Z,44.90
2022-12-23T06:31:09.944Z,44.90
2022-12-23T06:32:12.590Z,44.90
2022-12-23T06:33:15.835Z,44.90
2022-12-23T06:34:19.012Z,44.90
2022-12-23T06:35:21.484Z,44.90
2022-12-23T06:36:24.473Z,44.90
2022-12-23T06:37:26.961Z,44.80
2022-12-23T06:38:30.316Z,44.90
2022-12-23T06:39:33.721Z,44.90
2022-12-23T06:40:36.579Z,44.90
2022-12-23T06:41:39.103Z,44.90
2022-12-23T06:42:41.651Z,44.90
2022-12-23T06:43:44.241Z,44.90
2022-12-23T06:44:46.799Z,44.90
2022-12-23T06:45:49.703Z,44.90
2022-12-23T06:46:52.197Z,44.90
2022-12-23T06:47:54.762Z,44.90
2022-12-23T06:48:57.177Z,45.00
2022-12-23T06:49:59.708Z,45.00
2022-12-23T06:51:02.176Z,45.00
2022-12-23T06:52:04.818Z,45.00
2022-12-23T06:53:08.973Z,45.00
2022-12-23T06:54:12.072Z,45.00
2022-12-23T06:55:14.793Z,45.00
2022-12-23T06:56:18.157Z,45.00
2022-12-23T06:57:20.651Z,45.00
2022-12-23T06:58:23.471Z,45.00
2022-12-23T06:59:28.122Z,44.90
2022-12-23T07:00:30.915Z,45.00
2022-12-23T07:01:33.606Z,45.00
2022-12-23T07:02:36.237Z,45.00
2022-12-23T07:03:39.399Z,45.00
2022-12-23T07:04:41.867Z,45.00
2022-12-23T07:05:48.275Z,45.00
2022-12-23T07:06:50.798Z,45.00
2022-12-23T07:07:53.227Z,45.00
2022-12-23T07:08:55.716Z,45.00
2022-12-23T07:09:58.133Z,45.00
2022-12-23T07:11:05.013Z,45.00
2022-12-23T07:12:07.853Z,45.00
2022-12-23T07:13:11.301Z,45.10
2022-12-23T07:14:13.768Z,45.50
2022-12-23T07:15:16.305Z,45.10
2022-12-23T07:16:18.794Z,45.10
2022-12-23T07:17:21.656Z,45.00
2022-12-23T07:18:25.144Z,45.10
2022-12-23T07:19:27.616Z,45.10
2022-12-23T07:20:30.020Z,45.30
2022-12-23T07:21:32.444Z,45.50
2022-12-23T07:22:34.919Z,45.60
2022-12-23T07:23:37.340Z,45.50
2022-12-23T07:24:39.731Z,45.40
2022-12-23T07:25:42.261Z,45.70
2022-12-23T07:26:44.741Z,45.90
2022-12-23T07:27:47.370Z,46.40
2022-12-23T07:28:49.783Z,45.90
2022-12-23T07:29:52.304Z,45.80
2022-12-23T07:30:54.781Z,46.00
2022-12-23T07:32:02.700Z,46.60
2022-12-23T07:33:05.106Z,46.20
2022-12-23T07:34:07.646Z,46.40
2022-12-23T07:35:10.217Z,46.40
2022-12-23T07:36:12.772Z,46.50
2022-12-23T07:37:15.319Z,46.90
2022-12-23T07:38:17.761Z,47.10
2022-12-23T07:39:20.662Z,46.70
2022-12-23T07:40:23.802Z,47.40
2022-12-23T07:41:26.279Z,47.00
2022-12-23T07:42:46.290Z,47.00
2022-12-23T07:43:49.197Z,47.00
2022-12-23T07:44:51.644Z,47.10
2022-12-23T07:45:59.457Z,47.00
2022-12-23T07:47:03.274Z,47.10
2022-12-23T07:48:05.980Z,47.10
2022-12-23T07:49:08.435Z,47.90
2022-12-23T07:50:11.317Z,47.90
2022-12-23T07:51:15.167Z,47.70
2022-12-23T07:52:17.617Z,47.70
2022-12-23T07:53:20.112Z,48.20
2022-12-23T07:54:22.929Z,48.40
2022-12-23T07:55:25.508Z,48.10
2022-12-23T07:56:28.065Z,48.10
2022-12-23T07:57:37.371Z,48.00
2022-12-23T07:58:39.884Z,48.00
2022-12-23T07:59:42.353Z,48.40
2022-12-23T08:00:44.924Z,48.80
2022-12-23T08:01:47.482Z,48.70
2022-12-23T08:02:50.224Z,48.70
2022-12-23T08:03:52.830Z,48.90
2022-12-23T08:04:55.314Z,48.90
2022-12-23T08:06:02.812Z,49.50
2022-12-23T08:07:05.205Z,49.50
2022-12-23T08:08:07.598Z,49.80
2022-12-23T08:09:10.454Z,49.30
2022-12-23T08:10:13.930Z,49.20
2022-12-23T08:11:17.911Z,49.20
2022-12-23T08:12:20.555Z,49.10
2022-12-23T08:13:23.027Z,49.20
2022-12-23T08:14:25.580Z,49.20
2022-12-23T08:15:28.160Z,49.20
2022-12-23T08:16:36.629Z,49.10
2022-12-23T08:17:43.920Z,49.00
2022-12-23T08:18:46.381Z,49.00
2022-12-23T08:19:49.266Z,48.90
2022-12-23T08:20:59.815Z,48.90
2022-12-23T08:22:02.454Z,48.80
2022-12-23T08:23:04.936Z,48.80
2022-12-23T08:24:07.477Z,48.80
2022-12-23T08:25:10.197Z,48.70
2022-12-23T08:26:18.130Z,48.70
2022-12-23T08:27:20.596Z,48.70
2022-12-23T08:28:23.063Z,48.70
2022-12-23T08:29:25.537Z,48.70
2022-12-23T08:30:29.046Z,48.70
2022-12-23T08:31:32.037Z,48.60
2022-12-23T08:32:34.552Z,48.60
2022-12-23T08:33:38.738Z,48.60
2022-12-23T08:34:41.252Z,48.60
2022-12-23T08:35:43.698Z,48.60
2022-12-23T08:36:46.076Z,48.50
2022-12-23T08:37:48.616Z,48.60
2022-12-23T08:38:55.590Z,48.90
2022-12-23T08:39:58.057Z,48.80
2022-12-23T08:41:00.747Z,48.80
2022-12-23T08:42:03.195Z,48.70
2022-12-23T08:43:06.007Z,48.70
2022-12-23T08:44:08.941Z,49.50
2022-12-23T08:45:13.334Z,50.00
2022-12-23T08:46:15.854Z,49.70
2022-12-23T08:47:18.328Z,49.50
2022-12-23T08:48:20.728Z,49.60
2022-12-23T08:49:23.379Z,49.60
2022-12-23T08:50:27.210Z,49.60
2022-12-23T08:51:29.903Z,49.70
2022-12-23T08:52:33.827Z,49.70
2022-12-23T08:53:37.731Z,49.70
2022-12-23T08:54:40.135Z,49.70
2022-12-23T08:55:45.762Z,49.70
2022-12-23T08:56:48.313Z,49.60
2022-12-23T08:57:51.104Z,49.80
2022-12-23T08:58:55.382Z,49.90
2022-12-23T08:59:57.798Z,50.00
2022-12-23T09:01:04.347Z,50.00
2022-12-23T09:02:08.858Z,50.00
2022-12-23T09:03:11.755Z,50.00
2022-12-23T09:04:14.359Z,49.90
2022-12-23T09:05:17.427Z,50.00
2022-12-23T09:06:29.622Z,50.10
2022-12-23T09:07:32.647Z,50.10
2022-12-23T09:08:35.582Z,50.10
2022-12-23T09:09:38.681Z,50.00
2022-12-23T09:10:44.605Z,50.10
2022-12-23T09:11:47.302Z,50.10
2022-12-23T09:12:49.815Z,50.10
2022-12-23T09:13:52.985Z,50.10
2022-12-23T09:14:55.383Z,50.10
2022-12-23T09:15:57.932Z,50.00
2022-12-23T09:17:02.452Z,50.00
2022-12-23T09:18:05.940Z,49.90
2022-12-23T09:19:09.235Z,49.90
2022-12-23T09:20:12.075Z,49.90
2022-12-23T09:21:17.943Z,49.90
2022-12-23T09:22:20.440Z,49.80
2022-12-23T09:23:24.687Z,49.80
2022-12-23T09:24:27.137Z,49.70
2022-12-23T09:25:30.820Z,49.70
2022-12-23T09:26:34.269Z,49.70
2022-12-23T09:27:37.090Z,49.70
2022-12-23T09:28:42.312Z,49.70
2022-12-23T09:29:45.224Z,49.70
2022-12-23T09:30:49.504Z,49.70
2022-12-23T09:31:52.129Z,49.70
2022-12-23T09:32:55.301Z,49.70
2022-12-23T09:33:57.723Z,49.70
2022-12-23T09:35:00.531Z,49.60
2022-12-23T09:36:04.211Z,49.60
2022-12-23T09:37:07.031Z,49.60
2022-12-23T09:38:10.221Z,49.60
2022-12-23T09:39:12.710Z,49.60
2022-12-23T09:40:18.606Z,49.60
2022-12-23T09:41:47.540Z,49.50
2022-12-23T09:43:14.570Z,49.50
2022-12-23T09:44:38.622Z,49.50
2022-12-23T09:46:16.157Z,49.40
2022-12-23T09:47:22.220Z,49.40
2022-12-23T09:48:30.809Z,49.40
2022-12-23T09:49:33.807Z,49.30
2022-12-23T09:50:36.279Z,49.30
2022-12-23T09:51:38.850Z,49.30
2022-12-23T09:53:02.243Z,49.30
2022-12-23T09:54:22.316Z,49.30
2022-12-23T09:55:40.189Z,49.30
2022-12-23T09:56:48.309Z,49.20
2022-12-23T09:58:06.158Z,49.20
2022-12-23T09:59:38.394Z,49.20
2022-12-23T10:00:47.521Z,49.10
2022-12-23T10:02:09.145Z,49.00
2022-12-23T10:03:18.070Z,49.10
2022-12-23T10:04:37.622Z,49.00
2022-12-23T10:05:56.227Z,49.10
2022-12-23T10:07:31.738Z,49.10
2022-12-23T10:08:44.627Z,49.10
2022-12-23T10:09:51.118Z,49.10
2022-12-23T10:11:14.143Z,49.10
2022-12-23T10:12:40.308Z,49.10
2022-12-23T10:13:50.592Z,49.20
2022-12-23T10:14:57.953Z,49.30
2022-12-23T10:16:14.955Z,49.30
2022-12-23T10:17:30.476Z,49.40
2022-12-23T10:18:42.102Z,49.40
2022-12-23T10:19:47.884Z,49.50
2022-12-23T10:21:07.764Z,49.70
2022-12-23T10:22:18.432Z,49.60
2022-12-23T10:23:44.263Z,49.60
2022-12-23T10:24:48.232Z,49.70
2022-12-23T10:25:52.540Z,49.80
2022-12-23T10:26:56.358Z,49.80
2022-12-23T10:27:58.819Z,49.90
2022-12-23T10:29:18.751Z,49.90
2022-12-23T10:32:24.998Z,49.90
2022-12-23T10:33:55.732Z,50.00
2022-12-23T10:35:33.787Z,50.10
2022-12-23T10:36:58.054Z,50.00
2022-12-23T10:38:11.170Z,49.90
2022-12-23T10:39:44.847Z,50.10
2022-12-23T10:40:50.146Z,50.00
2022-12-23T10:42:15.013Z,50.00
2022-12-23T10:43:39.111Z,49.80
2022-12-23T10:45:09.713Z,50.00
2022-12-23T10:46:23.641Z,50.10
2022-12-23T10:48:06.065Z,50.10
2022-12-23T10:49:53.054Z,50.10
2022-12-23T10:50:55.455Z,50.10
2022-12-23T10:52:20.112Z,50.00
2022-12-23T10:53:44.216Z,50.00
2022-12-23T10:54:48.267Z,50.00
2022-12-23T10:55:50.861Z,50.00
2022-12-23T10:56:54.164Z,49.90
2022-12-23T10:58:05.216Z,50.00
2022-12-23T10:59:12.122Z,50.00
2022-12-23T11:00:21.236Z,50.00
2022-12-23T11:01:27.456Z,50.00
2022-12-23T11:02:48.959Z,50.00
2022-12-23T11:04:14.808Z,50.00
2022-12-23T11:05:25.520Z,49.90
2022-12-23T11:06:34.852Z,49.90
2022-12-23T11:07:44.562Z,49.90
2022-12-23T11:08:48.365Z,49.80
2022-12-23T11:09:54.292Z,49.80
2022-12-23T11:10:58.956Z,49.80
2022-12-23T11:12:04.770Z,49.70
2022-12-23T11:13:07.494Z,49.70
2022-12-23T11:14:30.861Z,49.70
2022-12-23T11:15:39.091Z,49.70
2022-12-23T11:16:46.956Z,49.70
2022-12-23T11:17:59.795Z,49.70
2022-12-23T11:19:14.254Z,49.70
2022-12-23T11:20:18.799Z,49.70
2022-12-23T11:21:21.383Z,50.20
2022-12-23T11:22:25.558Z,49.70
2022-12-23T11:23:37.110Z,49.70
2022-12-23T11:24:43.107Z,49.70
2022-12-23T11:25:46.338Z,49.60
2022-12-23T11:27:07.846Z,49.60
2022-12-23T11:28:19.739Z,49.60
2022-12-23T11:29:29.622Z,49.60
2022-12-23T11:30:36.746Z,49.60
2022-12-23T11:31:42.399Z,49.60
2022-12-23T11:32:45.437Z,49.60
2022-12-23T11:33:59.366Z,49.60
2022-12-23T11:35:04.802Z,49.60
2022-12-23T11:36:12.926Z,49.50
2022-12-23T11:37:44.828Z,49.60
2022-12-23T11:39:09.353Z,49.60
2022-12-23T11:40:26.441Z,49.50
2022-12-23T11:41:35.010Z,49.50
2022-12-23T11:42:41.530Z,49.60
2022-12-23T11:43:44.118Z,49.60
2022-12-23T11:44:50.638Z,49.50
2022-12-23T11:46:16.087Z,49.50
2022-12-23T11:47:26.298Z,49.50
2022-12-23T11:48:30.295Z,49.50
2022-12-23T11:49:32.715Z,49.60
2022-12-23T11:50:40.106Z,49.50
2022-12-23T11:51:44.934Z,49.50
2022-12-23T11:52:52.557Z,49.50
2022-12-23T11:54:00.628Z,49.50
2022-12-23T11:55:05.695Z,49.50
2022-12-23T11:56:11.861Z,49.50
2022-12-23T11:57:19.056Z,50.00
2022-12-23T11:58:22.709Z,49.50
2022-12-23T11:59:38.453Z,49.50
2022-12-23T12:00:43.033Z,49.50
2022-12-23T12:01:49.088Z,49.40
2022-12-23T12:02:58.683Z,49.50
2022-12-23T12:04:06.200Z,49.50
2022-12-23T12:05:29.938Z,49.50
2022-12-23T12:06:33.535Z,49.50
2022-12-23T12:07:36.243Z,49.50
2022-12-23T12:08:40.523Z,49.40
2022-12-23T12:09:45.838Z,49.40
2022-12-23T12:10:52.678Z,49.40
2022-12-23T12:12:03.697Z,49.40
2022-12-23T12:13:16.072Z,49.40
2022-12-23T12:14:37.844Z,49.40
2022-12-23T12:16:16.852Z,49.30
2022-12-23T12:17:40.656Z,49.40
2022-12-23T12:18:46.249Z,49.40
2022-12-23T12:20:27.550Z,49.40
2022-12-23T12:21:34.840Z,49.40
2022-12-23T12:22:49.616Z,49.40
2022-12-23T12:24:14.642Z,49.40
2022-12-23T12:25:39.847Z,49.30
2022-12-23T12:26:47.083Z,49.30
2022-12-23T12:27:59.146Z,49.40
2022-12-23T12:29:36.858Z,49.30
2022-12-23T12:30:48.418Z,49.30
2022-12-23T12:31:56.783Z,49.30
2022-12-23T12:33:23.376Z,49.40
2022-12-23T12:34:43.293Z,49.30
2022-12-23T12:35:57.800Z,49.30
2022-12-23T12:37:22.159Z,49.40
2022-12-23T12:38:34.795Z,50.00
2022-12-23T12:39:56.702Z,49.30
2022-12-23T12:41:08.749Z,49.30
2022-12-23T12:42:30.093Z,49.30
2022-12-23T12:43:37.888Z,49.30
2022-12-23T12:44:55.753Z,49.30
2022-12-23T12:46:07.106Z,49.30
2022-12-23T12:47:36.337Z,49.30
2022-12-23T12:48:51.262Z,49.30
2022-12-23T12:50:00.260Z,49.30
2022-12-23T12:51:18.946Z,49.30
2022-12-23T12:52:24.714Z,49.40
2022-12-23T12:53:28.293Z,49.30
2022-12-23T12:54:39.811Z,49.30
2022-12-23T12:55:47.419Z,49.30
2022-12-23T12:56:55.873Z,49.40
2022-12-23T12:57:58.357Z,49.30
2022-12-23T12:59:00.993Z,49.40
2022-12-23T13:00:09.402Z,49.30
2022-12-23T13:01:17.951Z,49.30
2022-12-23T13:02:37.138Z,49.40
2022-12-23T13:03:39.547Z,49.40
2022-12-23T13:04:44.751Z,49.40
2022-12-23T13:06:13.064Z,49.40
2022-12-23T13:07:24.416Z,49.40
2022-12-23T13:08:51.830Z,49.40
2022-12-23T13:10:14.032Z,49.40
2022-12-23T13:11:28.771Z,49.40
2022-12-23T13:12:56.207Z,49.40
2022-12-23T13:14:24.505Z,49.40
2022-12-23T13:15:44.326Z,49.40
2022-12-23T13:17:21.502Z,49.40
2022-12-23T13:18:47.007Z,49.40
2022-12-23T13:20:21.318Z,49.40
2022-12-23T13:21:58.170Z,49.40
2022-12-23T13:23:41.529Z,49.70
2022-12-23T13:25:03.170Z,49.80
2022-12-23T13:26:22.023Z,49.80
2022-12-23T13:27:35.432Z,50.00
2022-12-23T13:29:10.791Z,49.70
2022-12-23T13:30:14.017Z,49.90
2022-12-23T13:31:45.159Z,50.10
2022-12-23T13:33:17.282Z,50.20
2022-12-23T13:34:49.061Z,50.30
2022-12-23T13:36:04.999Z,50.40
2022-12-23T13:37:19.742Z,50.50
2022-12-23T13:38:25.071Z,50.70
2022-12-23T13:39:42.494Z,50.80
2022-12-23T13:41:01.952Z,51.00
2022-12-23T13:42:06.439Z,51.20
2022-12-23T13:43:15.965Z,51.20
2022-12-23T13:44:19.353Z,51.30
2022-12-23T13:45:24.340Z,51.40
2022-12-23T13:47:00.231Z,51.30
2022-12-23T13:48:47.840Z,51.30
2022-12-23T13:50:09.261Z,51.40
2022-12-23T13:51:20.294Z,51.40
2022-12-23T13:52:41.535Z,51.60
2022-12-23T13:54:12.457Z,51.50
2022-12-23T13:55:33.552Z,51.60
2022-12-23T13:56:43.865Z,51.60
2022-12-23T13:58:02.888Z,51.60
2022-12-23T13:59:10.771Z,51.50
2022-12-23T14:00:19.211Z,51.50
2022-12-23T14:01:36.642Z,51.70
2022-12-23T14:02:42.623Z,52.30
2022-12-23T14:03:48.850Z,52.50
2022-12-23T14:04:59.385Z,52.50
2022-12-23T14:06:26.209Z,52.50
2022-12-23T14:07:31.986Z,52.70
2022-12-23T14:08:42.095Z,52.70
2022-12-23T14:09:55.929Z,52.60
2022-12-23T14:11:14.818Z,52.50
2022-12-23T14:12:22.193Z,53.10
2022-12-23T14:13:46.109Z,52.40
2022-12-23T14:15:04.498Z,52.30
2022-12-23T14:16:19.235Z,52.20
2022-12-23T14:17:31.735Z,52.30
2022-12-23T14:19:11.704Z,52.20
2022-12-23T14:20:26.377Z,52.20
2022-12-23T14:22:04.130Z,52.10
2022-12-23T14:23:36.422Z,52.00
2022-12-23T14:25:10.629Z,52.00
2022-12-23T14:26:50.059Z,51.90
2022-12-23T14:28:02.875Z,51.90
2022-12-23T14:29:13.983Z,51.80
2022-12-23T14:30:37.416Z,51.80
2022-12-23T14:31:42.547Z,51.80
2022-12-23T14:32:50.603Z,51.70
2022-12-23T14:33:53.034Z,51.70
2022-12-23T14:35:26.147Z,51.70
2022-12-23T14:36:29.513Z,51.70
2022-12-23T14:37:34.166Z,51.60
2022-12-23T14:38:36.640Z,51.60
2022-12-23T14:39:39.257Z,51.60
2022-12-23T14:40:55.311Z,51.50
2022-12-23T14:42:05.124Z,51.60
2022-12-23T14:43:51.263Z,51.50
2022-12-23T14:44:53.874Z,51.60
2022-12-23T14:46:06.227Z,51.60
2022-12-23T14:47:36.139Z,51.50
2022-12-23T14:48:44.228Z,51.50
2022-12-23T14:49:46.994Z,51.50
2022-12-23T14:51:13.716Z,51.50
2022-12-23T14:52:44.382Z,51.50
2022-12-23T14:54:00.428Z,51.40